createdAt,value
2022-12-22T00:00:01.394Z,6.87
2022-12-22T00:02:27.950Z,7.36
2022-12-22T00:04:54.492Z,7.09
2022-12-22T00:07:21.039Z,6.54
2022-12-22T00:09:47.536Z,6.72
2022-12-22T00:12:14.037Z,5.30
2022-12-22T00:14:40.511Z,4.14
2022-12-22T00:17:07.018Z,3.91
2022-12-22T00:19:33.474Z,4.10
2022-12-22T00:22:00.002Z,4.00
2022-12-22T00:24:27.644Z,3.82
2022-12-22T00:26:54.087Z,3.73
2022-12-22T00:29:20.561Z,3.37
2022-12-22T00:31:46.989Z,3.13
2022-12-22T00:34:13.470Z,2.94
2022-12-22T00:36:39.914Z,2.96
2022-12-22T00:39:06.330Z,2.76
2022-12-22T00:41:32.824Z,2.82
2022-12-22T00:43:59.263Z,2.68
2022-12-22T00:46:25.782Z,2.78
2022-12-22T00:48:52.243Z,2.66
2022-12-22T00:51:18.670Z,2.43
2022-12-22T00:53:45.132Z,2.40
2022-12-22T00:56:12.558Z,1.98
2022-12-22T00:58:39.041Z,2.39
2022-12-22T01:01:05.500Z,1.95
2022-12-22T01:03:32.067Z,1.90
2022-12-22T01:05:58.557Z,2.00
2022-12-22T01:08:24.983Z,1.71
2022-12-22T01:10:51.460Z,1.71
2022-12-22T01:13:17.894Z,1.78
2022-12-22T01:15:44.450Z,2.19
2022-12-22T01:18:10.923Z,2.05
2022-12-22T01:20:37.364Z,2.33
2022-12-22T01:23:03.804Z,1.89
2022-12-22T01:25:30.203Z,2.01
2022-12-22T01:27:56.643Z,2.29
2022-12-22T01:30:23.058Z,2.25
2022-12-22T01:32:49.515Z,2.31
2022-12-22T01:35:15.917Z,2.24
2022-12-22T01:37:42.340Z,2.32
2022-12-22T01:40:08.822Z,2.43
2022-12-22T01:42:35.230Z,2.53
2022-12-22T01:45:01.643Z,2.40
2022-12-22T01:47:28.084Z,2.70
2022-12-22T01:49:54.482Z,2.52
2022-12-22T01:52:20.933Z,2.43
2022-12-22T01:54:47.377Z,2.46
2022-12-22T01:57:13.828Z,2.56
2022-12-22T01:59:40.294Z,2.60
2022-12-22T02:02:06.993Z,2.62
2022-12-22T02:04:33.491Z,2.64
2022-12-22T02:07:00.606Z,2.99
2022-12-22T02:09:27.394Z,2.76
2022-12-22T02:11:53.812Z,2.73
2022-12-22T02:14:24.727Z,2.80
2022-12-22T02:16:54.295Z,2.95
2022-12-22T02:19:20.727Z,2.89
2022-12-22T02:21:47.154Z,2.78
2022-12-22T02:24:13.618Z,2.47
2022-12-22T02:26:40.069Z,2.70
2022-12-22T02:29:06.478Z,2.75
2022-12-22T02:31:32.960Z,2.74
2022-12-22T02:33:59.579Z,3.06
2022-12-22T02:36:26.060Z,2.84
2022-12-22T02:38:52.494Z,2.57
2022-12-22T02:41:18.929Z,2.65
2022-12-22T02:43:45.399Z,2.66
2022-12-22T02:46:11.913Z,2.48
2022-12-22T02:48:38.455Z,2.59
2022-12-22T02:51:04.900Z,2.44
2022-12-22T02:53:31.348Z,2.57
2022-12-22T02:55:57.772Z,2.50
2022-12-22T02:58:24.329Z,2.43
2022-12-22T03:00:50.791Z,2.25
2022-12-22T03:03:17.528Z,2.19
2022-12-22T03:05:44.124Z,2.08
2022-12-22T03:08:10.572Z,1.88
2022-12-22T03:10:37.054Z,1.86
2022-12-22T03:13:03.478Z,1.94
2022-12-22T03:15:29.889Z,1.81
2022-12-22T03:17:56.323Z,1.80
2022-12-22T03:20:22.789Z,1.55
2022-12-22T03:22:50.822Z,1.49
2022-12-22T03:25:23.139Z,1.50
2022-12-22T03:27:49.582Z,1.52
2022-12-22T03:30:16.047Z,1.41
2022-12-22T03:32:42.517Z,1.47
2022-12-22T03:35:09.121Z,1.36
2022-12-22T03:37:37.832Z,1.34
2022-12-22T03:40:04.233Z,1.30
2022-12-22T03:42:31.032Z,1.30
2022-12-22T03:44:57.461Z,1.29
2022-12-22T03:47:23.934Z,1.26
2022-12-22T03:49:51.427Z,1.16
2022-12-22T03:52:18.077Z,1.32
2022-12-22T03:54:44.996Z,1.16
2022-12-22T03:57:11.416Z,1.19
2022-12-22T03:59:37.869Z,1.45
2022-12-22T04:02:04.512Z,1.18
2022-12-22T04:04:31.504Z,1.17
2022-12-22T04:06:57.902Z,1.19
2022-12-22T04:09:24.383Z,1.07
2022-12-22T04:11:51.029Z,1.10
2022-12-22T04:14:17.585Z,1.42
2022-12-22T04:16:44.109Z,1.45
2022-12-22T04:19:10.772Z,1.33
2022-12-22T04:21:37.214Z,1.42
2022-12-22T04:24:03.673Z,1.37
2022-12-22T04:26:30.098Z,1.42
2022-12-22T04:28:56.602Z,1.51
2022-12-22T04:31:23.113Z,1.34
2022-12-22T04:33:49.584Z,1.43
2022-12-22T04:36:16.031Z,1.26
2022-12-22T04:38:42.473Z,1.28
2022-12-22T04:41:08.923Z,1.54
2022-12-22T04:43:35.329Z,1.49
2022-12-22T04:46:01.812Z,1.35
2022-12-22T04:48:28.295Z,1.26
2022-12-22T04:50:54.749Z,1.34
2022-12-22T04:53:21.190Z,1.44
2022-12-22T04:55:47.639Z,1.45
2022-12-22T04:58:14.070Z,1.43
2022-12-22T05:00:40.538Z,1.44
2022-12-22T05:03:07.139Z,1.37
2022-12-22T05:05:33.625Z,1.45
2022-12-22T05:08:00.114Z,1.37
2022-12-22T05:10:26.628Z,1.52
2022-12-22T05:12:53.057Z,1.36
2022-12-22T05:15:19.546Z,1.29
2022-12-22T05:17:45.985Z,1.47
2022-12-22T05:20:12.412Z,1.28
2022-12-22T05:22:38.880Z,1.30
2022-12-22T05:25:06.173Z,1.29
2022-12-22T05:27:32.592Z,1.28
2022-12-22T05:29:58.993Z,1.19
2022-12-22T05:32:25.422Z,1.18
2022-12-22T05:34:51.863Z,1.08
2022-12-22T05:37:18.279Z,1.25
2022-12-22T05:39:44.691Z,1.39
2022-12-22T05:42:11.136Z,1.23
2022-12-22T05:44:37.621Z,1.28
2022-12-22T05:47:04.019Z,1.29
2022-12-22T05:49:30.417Z,1.28
2022-12-22T05:51:56.862Z,1.36
2022-12-22T05:54:23.273Z,1.19
2022-12-22T05:56:49.665Z,1.00
2022-12-22T05:59:16.081Z,1.35
2022-12-22T06:01:42.621Z,1.17
2022-12-22T06:04:09.154Z,1.57
2022-12-22T06:06:35.653Z,1.40
2022-12-22T06:09:02.075Z,1.36
2022-12-22T06:11:28.537Z,1.63
2022-12-22T06:13:54.982Z,1.25
2022-12-22T06:16:21.536Z,1.13
2022-12-22T06:18:48.019Z,1.16
2022-12-22T06:21:14.513Z,1.14
2022-12-22T06:23:40.965Z,1.13
2022-12-22T06:26:07.445Z,1.44
2022-12-22T06:28:33.845Z,1.03
2022-12-22T06:31:00.341Z,1.31
2022-12-22T06:33:26.869Z,1.15
2022-12-22T06:35:58.697Z,1.31
2022-12-22T06:38:25.895Z,1.07
2022-12-22T06:40:52.357Z,1.18
2022-12-22T06:43:18.811Z,2.05
2022-12-22T06:45:45.247Z,1.21
2022-12-22T06:48:11.662Z,1.22
2022-12-22T06:50:38.149Z,1.30
2022-12-22T06:53:04.619Z,1.08
2022-12-22T06:55:31.266Z,1.41
2022-12-22T06:57:57.743Z,1.24
2022-12-22T07:00:24.258Z,1.24
2022-12-22T07:02:50.796Z,1.43
2022-12-22T07:05:17.303Z,1.42
2022-12-22T07:07:43.769Z,1.31
2022-12-22T07:10:10.186Z,1.31
2022-12-22T07:12:38.675Z,1.21
2022-12-22T07:15:05.115Z,1.49
2022-12-22T07:17:31.567Z,1.58
2022-12-22T07:19:58.009Z,1.58
2022-12-22T07:22:29.786Z,1.64
2022-12-22T07:24:57.338Z,1.49
2022-12-22T07:27:23.824Z,1.61
2022-12-22T07:29:50.271Z,1.79
2022-12-22T07:32:16.739Z,1.96
2022-12-22T07:34:43.210Z,1.95
2022-12-22T07:37:09.679Z,2.47
2022-12-22T07:39:36.149Z,2.94
2022-12-22T07:42:02.668Z,3.02
2022-12-22T07:44:29.142Z,3.35
2022-12-22T07:46:55.727Z,3.06
2022-12-22T07:49:22.231Z,3.11
2022-12-22T07:51:48.819Z,2.81
2022-12-22T07:54:15.345Z,2.68
2022-12-22T07:56:41.819Z,2.60
2022-12-22T07:59:08.374Z,2.68
2022-12-22T08:01:35.114Z,2.91
2022-12-22T08:04:01.643Z,2.59
2022-12-22T08:06:28.108Z,2.50
2022-12-22T08:08:54.723Z,2.30
2022-12-22T08:11:21.136Z,2.11
2022-12-22T08:13:47.628Z,2.20
2022-12-22T08:16:14.120Z,2.28
2022-12-22T08:18:40.908Z,1.99
2022-12-22T08:21:07.421Z,2.40
2022-12-22T08:23:34.081Z,2.32
2022-12-22T08:26:00.682Z,1.99
2022-12-22T08:28:27.099Z,2.01
2022-12-22T08:30:53.804Z,2.20
2022-12-22T08:33:20.328Z,1.92
2022-12-22T08:35:47.636Z,2.16
2022-12-22T08:38:14.178Z,2.13
2022-12-22T08:40:40.680Z,2.03
2022-12-22T08:43:07.130Z,1.97
2022-12-22T08:45:33.666Z,2.41
2022-12-22T08:48:00.868Z,2.28
2022-12-22T08:50:27.671Z,2.28
2022-12-22T08:52:56.984Z,2.44
2022-12-22T08:55:25.741Z,2.42
2022-12-22T08:57:55.970Z,2.45
2022-12-22T09:00:23.702Z,2.58
2022-12-22T09:02:50.278Z,3.12
2022-12-22T09:05:17.850Z,2.76
2022-12-22T09:07:44.537Z,2.57
2022-12-22T09:10:11.031Z,2.75
2022-12-22T09:12:37.718Z,2.48
2022-12-22T09:15:04.500Z,2.45
2022-12-22T09:17:33.284Z,2.30
2022-12-22T09:19:59.948Z,2.37
2022-12-22T09:22:28.567Z,2.22
2022-12-22T09:24:55.427Z,2.18
2022-12-22T09:27:21.867Z,1.97
2022-12-22T09:29:48.347Z,2.29
2022-12-22T09:32:15.112Z,1.77
2022-12-22T09:34:41.631Z,1.87
2022-12-22T09:37:08.032Z,1.99
2022-12-22T09:39:34.634Z,1.93
2022-12-22T09:42:01.056Z,1.88
2022-12-22T09:44:27.535Z,1.90
2022-12-22T09:46:54.381Z,1.70
2022-12-22T09:49:20.849Z,1.83
2022-12-22T09:51:47.265Z,1.91
2022-12-22T09:54:13.741Z,1.56
2022-12-22T09:56:40.165Z,2.19
2022-12-22T09:59:06.628Z,2.02
2022-12-22T10:01:33.166Z,2.23
2022-12-22T10:04:01.009Z,2.43
2022-12-22T10:06:27.673Z,2.23
2022-12-22T10:08:54.370Z,2.32
2022-12-22T10:11:20.838Z,2.29
2022-12-22T10:13:47.324Z,2.24
2022-12-22T10:16:13.886Z,2.35
2022-12-22T10:18:40.310Z,2.15
2022-12-22T10:21:06.788Z,2.03
2022-12-22T10:23:38.885Z,2.73
2022-12-22T10:28:54.444Z,2.26
2022-12-22T10:31:21.047Z,2.30
2022-12-22T10:33:47.965Z,2.08
2022-12-22T10:36:14.441Z,2.09
2022-12-22T10:38:41.089Z,2.21
2022-12-22T10:41:07.894Z,2.05
2022-12-22T10:43:34.418Z,1.61
2022-12-22T10:46:01.382Z,1.84
2022-12-22T10:48:27.898Z,1.65
2022-12-22T10:50:54.307Z,1.72
2022-12-22T10:53:20.739Z,1.67
2022-12-22T10:55:47.223Z,1.44
2022-12-22T10:58:14.157Z,1.69
2022-12-22T11:00:41.753Z,1.78
2022-12-22T11:03:09.487Z,2.40
2022-12-22T11:05:36.955Z,2.07
2022-12-22T11:08:03.600Z,1.61
2022-12-22T11:10:30.195Z,1.88
2022-12-22T11:12:56.779Z,1.58
2022-12-22T11:15:25.117Z,1.34
2022-12-22T11:17:51.980Z,1.72
2022-12-22T11:20:18.586Z,1.76
2022-12-22T11:22:45.203Z,1.79
2022-12-22T11:25:13.482Z,1.92
2022-12-22T11:27:45.775Z,2.05
2022-12-22T11:30:12.645Z,2.12
2022-12-22T11:32:39.045Z,1.72
2022-12-22T11:35:05.526Z,2.56
2022-12-22T11:37:31.993Z,2.23
2022-12-22T11:39:59.712Z,2.12
2022-12-22T11:42:26.252Z,2.17
2022-12-22T11:44:52.671Z,2.26
2022-12-22T11:47:19.145Z,1.78
2022-12-22T11:49:47.818Z,2.12
2022-12-22T11:52:14.264Z,2.42
2022-12-22T11:54:40.694Z,2.46
2022-12-22T11:57:07.155Z,2.20
2022-12-22T11:59:34.159Z,2.01
2022-12-22T12:02:00.678Z,1.95
2022-12-22T12:04:27.174Z,1.92
2022-12-22T12:06:53.624Z,1.65
2022-12-22T12:09:20.091Z,1.91
2022-12-22T12:11:46.492Z,1.83
2022-12-22T12:14:12.914Z,1.63
2022-12-22T12:16:39.464Z,1.84
2022-12-22T12:19:06.062Z,1.96
2022-12-22T12:21:32.493Z,1.80
2022-12-22T12:23:58.896Z,1.76
2022-12-22T12:26:25.430Z,1.97
2022-12-22T12:28:51.839Z,1.94
2022-12-22T12:31:24.311Z,1.96
2022-12-22T12:33:52.620Z,2.09
2022-12-22T12:36:19.110Z,2.44
2022-12-22T12:41:31.977Z,2.38
2022-12-22T12:43:58.410Z,2.34
2022-12-22T12:46:24.978Z,2.05
2022-12-22T12:48:51.467Z,2.27
2022-12-22T12:51:17.938Z,2.39
2022-12-22T12:53:44.341Z,2.30
2022-12-22T12:56:10.783Z,2.38
2022-12-22T12:58:37.343Z,2.44
2022-12-22T13:01:03.815Z,2.20
2022-12-22T13:04:01.715Z,2.36
2022-12-22T13:06:16.666Z,2.04
2022-12-22T13:08:43.062Z,1.87
2022-12-22T13:11:09.490Z,2.24
2022-12-22T13:13:35.999Z,2.14
2022-12-22T13:16:02.580Z,2.30
2022-12-22T13:18:29.163Z,5.76
2022-12-22T13:20:55.881Z,1.77
2022-12-22T13:23:29.429Z,1.77
2022-12-22T13:25:55.928Z,2.14
2022-12-22T13:28:22.384Z,2.31
2022-12-22T13:30:48.877Z,2.49
2022-12-22T13:33:15.318Z,2.36
2022-12-22T13:35:47.593Z,2.36
2022-12-22T13:38:14.827Z,2.37
2022-12-22T13:40:41.291Z,2.35
2022-12-22T13:43:07.965Z,2.37
2022-12-22T13:45:34.525Z,2.22
2022-12-22T13:48:02.876Z,2.61
2022-12-22T13:50:29.425Z,2.38
2022-12-22T13:52:55.988Z,2.39
2022-12-22T13:55:22.576Z,2.24
2022-12-22T13:57:53.280Z,2.59
2022-12-22T14:00:22.987Z,2.53
2022-12-22T14:02:49.604Z,2.70
2022-12-22T14:05:16.188Z,2.10
2022-12-22T14:07:42.616Z,2.64
2022-12-22T14:10:09.062Z,3.12
2022-12-22T14:12:35.585Z,2.62
2022-12-22T14:15:02.166Z,2.85
2022-12-22T14:17:28.704Z,3.02
2022-12-22T14:19:55.164Z,2.99
2022-12-22T14:22:22.019Z,2.64
2022-12-22T14:24:48.557Z,2.79
2022-12-22T14:27:15.232Z,2.71
2022-12-22T14:29:41.892Z,2.20
2022-12-22T14:32:08.873Z,2.40
2022-12-22T14:34:35.501Z,2.51
2022-12-22T14:37:02.178Z,2.25
2022-12-22T14:39:28.849Z,2.63
2022-12-22T14:41:55.488Z,2.77
2022-12-22T14:44:22.182Z,2.60
2022-12-22T14:46:48.695Z,2.85
2022-12-22T14:49:15.413Z,2.76
2022-12-22T14:51:42.081Z,2.93
2022-12-22T14:54:08.696Z,3.23
2022-12-22T14:56:35.754Z,3.14
2022-12-22T14:59:02.514Z,3.12
2022-12-22T15:01:29.360Z,2.97
2022-12-22T15:03:56.106Z,2.75
2022-12-22T15:06:22.859Z,3.03
2022-12-22T15:08:49.252Z,2.93
2022-12-22T15:11:15.675Z,3.24
2022-12-22T15:13:42.097Z,2.77
2022-12-22T15:16:08.732Z,3.25
2022-12-22T15:18:35.221Z,2.71
2022-12-22T15:21:01.764Z,2.53
2022-12-22T15:23:28.307Z,2.57
2022-12-22T15:25:56.001Z,2.41
2022-12-22T15:28:22.485Z,2.53
2022-12-22T15:30:49.168Z,2.04
2022-12-22T15:33:15.669Z,2.42
2022-12-22T15:35:42.151Z,2.60
2022-12-22T15:38:08.569Z,2.49
2022-12-22T15:40:35.004Z,2.15
2022-12-22T15:43:01.481Z,1.88
2022-12-22T15:45:28.678Z,1.52
2022-12-22T15:47:55.297Z,1.60
2022-12-22T15:50:21.782Z,1.25
2022-12-22T15:52:48.220Z,1.33
2022-12-22T15:55:14.656Z,1.50
2022-12-22T15:57:41.137Z,1.82
2022-12-22T16:00:07.587Z,1.64
2022-12-22T16:02:34.139Z,1.76
2022-12-22T16:05:00.665Z,2.06
2022-12-22T16:07:27.094Z,2.00
2022-12-22T16:09:53.539Z,2.09
2022-12-22T16:12:20.050Z,2.04
2022-12-22T16:14:50.234Z,2.07
2022-12-22T16:17:17.351Z,2.30
2022-12-22T16:19:43.802Z,2.24
2022-12-22T16:22:10.213Z,2.62
2022-12-22T16:24:36.661Z,2.38
2022-12-22T16:27:03.141Z,2.55
2022-12-22T16:29:29.650Z,2.63
2022-12-22T16:31:56.136Z,2.58
2022-12-22T16:34:22.616Z,2.59
2022-12-22T16:36:49.077Z,2.99
2022-12-22T16:39:15.508Z,2.94
2022-12-22T16:41:41.926Z,3.23
2022-12-22T16:44:08.377Z,3.58
2022-12-22T16:46:34.956Z,3.07
2022-12-22T16:49:01.532Z,3.44
2022-12-22T16:51:28.001Z,3.51
2022-12-22T16:53:54.412Z,3.36
2022-12-22T16:56:20.886Z,3.25
2022-12-22T16:58:47.329Z,3.45
2022-12-22T17:01:13.761Z,3.12
2022-12-22T17:03:40.315Z,3.47
2022-12-22T17:06:06.816Z,3.82
2022-12-22T17:08:33.287Z,3.23
2022-12-22T17:11:03.364Z,3.69
2022-12-22T17:13:34.601Z,3.61
2022-12-22T17:16:01.089Z,3.29
2022-12-22T17:18:27.539Z,3.62
2022-12-22T17:20:53.983Z,3.47
2022-12-22T17:23:20.448Z,3.59
2022-12-22T17:25:46.915Z,3.57
2022-12-22T17:28:13.338Z,3.65
2022-12-22T17:30:39.774Z,3.38
2022-12-22T17:33:06.187Z,3.38
2022-12-22T17:35:32.660Z,3.55
2022-12-22T17:37:59.113Z,3.49
2022-12-22T17:40:25.711Z,3.59
2022-12-22T17:42:52.151Z,3.73
2022-12-22T17:45:18.634Z,4.02
2022-12-22T17:47:45.094Z,3.71
2022-12-22T17:50:11.551Z,3.67
2022-12-22T17:52:37.971Z,3.58
2022-12-22T17:55:04.409Z,3.76
2022-12-22T17:57:30.858Z,3.61
2022-12-22T17:59:57.274Z,3.41
2022-12-22T18:02:23.880Z,3.97
2022-12-22T18:04:50.489Z,4.31
2022-12-22T18:07:16.906Z,3.84
2022-12-22T18:09:43.341Z,3.47
2022-12-22T18:12:09.802Z,3.83
2022-12-22T18:14:36.260Z,4.27
2022-12-22T18:17:02.710Z,3.57
2022-12-22T18:19:29.145Z,3.64
2022-12-22T18:21:55.551Z,3.67
2022-12-22T18:24:22.094Z,3.95
2022-12-22T18:26:48.507Z,3.80
2022-12-22T18:29:14.939Z,3.87
2022-12-22T18:31:41.556Z,3.85
2022-12-22T18:34:08.054Z,3.85
2022-12-22T18:36:34.467Z,3.74
2022-12-22T18:39:02.361Z,3.42
2022-12-22T18:41:28.829Z,3.87
2022-12-22T18:43:55.288Z,3.70
2022-12-22T18:46:21.780Z,4.11
2022-12-22T18:48:48.253Z,4.31
2022-12-22T18:51:14.678Z,4.05
2022-12-22T18:53:41.101Z,3.38
2022-12-22T18:56:07.513Z,4.11
2022-12-22T18:58:34.000Z,4.00
2022-12-22T19:01:00.504Z,3.74
2022-12-22T19:03:27.048Z,4.10
2022-12-22T19:05:53.486Z,4.00
2022-12-22T19:08:23.242Z,3.48
2022-12-22T19:10:49.674Z,3.65
2022-12-22T19:13:16.816Z,4.18
2022-12-22T19:15:44.412Z,4.45
2022-12-22T19:18:11.289Z,4.33
2022-12-22T19:20:37.731Z,4.00
2022-12-22T19:23:04.167Z,4.09
2022-12-22T19:25:30.616Z,4.10
2022-12-22T19:27:57.097Z,3.62
2022-12-22T19:30:23.515Z,3.63
2022-12-22T19:32:50.019Z,3.88
2022-12-22T19:35:16.588Z,3.77
2022-12-22T19:37:43.082Z,3.87
2022-12-22T19:40:13.015Z,4.04
2022-12-22T19:42:39.569Z,3.55
2022-12-22T19:45:11.530Z,3.94
2022-12-22T19:47:42.052Z,4.12
2022-12-22T19:50:09.545Z,3.80
2022-12-22T19:52:36.207Z,3.54
2022-12-22T19:55:02.952Z,3.59
2022-12-22T19:57:30.539Z,3.53
2022-12-22T19:59:57.034Z,3.36
2022-12-22T20:02:23.598Z,3.12
2022-12-22T20:04:50.419Z,3.21
2022-12-22T20:07:17.413Z,3.29
2022-12-22T20:09:44.304Z,2.87
2022-12-22T20:12:12.595Z,2.70
2022-12-22T20:14:41.178Z,3.05
2022-12-22T20:17:07.681Z,2.89
2022-12-22T20:19:34.383Z,2.74
2022-12-22T20:22:00.892Z,2.63
2022-12-22T20:24:29.693Z,2.44
2022-12-22T20:26:56.393Z,2.34
2022-12-22T20:29:23.017Z,2.19
2022-12-22T20:31:50.824Z,2.13
2022-12-22T20:34:18.416Z,1.99
2022-12-22T20:36:45.090Z,1.92
2022-12-22T20:39:12.778Z,1.82
2022-12-22T20:41:39.610Z,1.69
2022-12-22T20:44:06.027Z,1.63
2022-12-22T20:46:32.644Z,1.69
2022-12-22T20:48:59.231Z,1.51
2022-12-22T20:51:25.704Z,1.28
2022-12-22T20:53:52.191Z,1.39
2022-12-22T20:56:18.620Z,1.21
2022-12-22T20:58:45.107Z,1.53
2022-12-22T21:01:11.635Z,1.15
2022-12-22T21:03:38.157Z,1.15
2022-12-22T21:06:04.596Z,1.00
2022-12-22T21:08:31.890Z,1.17
2022-12-22T21:10:58.442Z,1.21
2022-12-22T21:13:24.844Z,1.07
2022-12-22T21:15:51.261Z,1.14
2022-12-22T21:18:17.757Z,1.24
2022-12-22T21:20:44.274Z,0.94
2022-12-22T21:23:10.678Z,0.86
2022-12-22T21:25:40.632Z,0.86
2022-12-22T21:28:09.660Z,0.80
2022-12-22T21:30:36.115Z,0.86
2022-12-22T21:33:02.743Z,0.79
2022-12-22T21:35:29.199Z,0.77
2022-12-22T21:37:55.648Z,0.81
2022-12-22T21:40:22.082Z,0.73
2022-12-22T21:42:48.499Z,0.69
2022-12-22T21:45:16.351Z,0.59
2022-12-22T21:47:42.790Z,0.66
2022-12-22T21:50:09.188Z,1.07
2022-12-22T21:52:35.614Z,0.90
2022-12-22T21:55:02.063Z,0.60
2022-12-22T21:57:28.492Z,0.63
2022-12-22T21:59:54.953Z,0.54
2022-12-22T22:02:21.580Z,0.60
2022-12-22T22:04:54.023Z,0.55
2022-12-22T22:07:21.193Z,0.46
2022-12-22T22:09:47.816Z,0.71
2022-12-22T22:12:14.300Z,0.55
2022-12-22T22:14:40.742Z,0.52
2022-12-22T22:17:07.220Z,0.47
2022-12-22T22:19:33.644Z,0.40
2022-12-22T22:22:00.108Z,0.46
2022-12-22T22:24:26.541Z,0.32
2022-12-22T22:26:52.954Z,0.30
2022-12-22T22:29:19.343Z,0.39
2022-12-22T22:31:46.015Z,0.31
2022-12-22T22:34:12.522Z,0.40
2022-12-22T22:36:38.948Z,0.42
2022-12-22T22:39:05.337Z,0.33
2022-12-22T22:41:35.210Z,0.35
2022-12-22T22:44:04.212Z,0.46
2022-12-22T22:46:30.703Z,0.31
2022-12-22T22:48:57.138Z,0.38
2022-12-22T22:51:23.548Z,0.28
2022-12-22T22:53:49.973Z,0.22
2022-12-22T22:56:16.387Z,0.19
2022-12-22T22:58:42.795Z,0.23
2022-12-22T23:01:09.307Z,0.24
2022-12-22T23:03:35.802Z,0.22
2022-12-22T23:06:02.432Z,0.25
2022-12-22T23:08:28.872Z,0.20
2022-12-22T23:10:55.302Z,0.18
2022-12-22T23:13:21.703Z,0.23
2022-12-22T23:15:48.185Z,0.26
2022-12-22T23:18:14.637Z,0.20
2022-12-22T23:20:41.038Z,0.15
2022-12-22T23:23:07.491Z,0.16
2022-12-22T23:25:33.959Z,0.16
2022-12-22T23:28:00.381Z,0.13
2022-12-22T23:30:26.822Z,0.19
2022-12-22T23:32:53.255Z,0.16
2022-12-22T23:35:19.638Z,0.18
2022-12-22T23:37:46.041Z,0.11
2022-12-22T23:40:50.410Z,0.15
2022-12-22T23:42:58.820Z,0.20
2022-12-22T23:45:25.228Z,0.13
2022-12-22T23:47:51.627Z,0.31
2022-12-22T23:50:18.027Z,0.21
2022-12-22T23:52:49.206Z,0.22
2022-12-22T23:55:15.909Z,0.21
2022-12-22T23:57:42.316Z,0.23
